sensor_id;sensor_type;location;lat;lon;timestamp;P1;durP1;ratioP1;P2;durP2;ratioP2
15287;SDS011;7745;48.708;9.026;2023-09-12T00:00:07;14.90;;;8.97;;
15287;SDS011;7745;48.708;9.026;2023-09-12T00:02:35;15.43;;;9.03;;
15287;SDS011;7745;48.708;9.026;2023-09-12T00:05:02;11.33;;;9.03;;
15287;SDS011;7745;48.708;9.026;2023-09-12T00:07:29;14.03;;;8.80;;
15287;SDS011;7745;48.708;9.026;2023-09-12T00:09:56;11.37;;;8.87;;
15287;SDS011;7745;48.708;9.026;2023-09-12T00:12:23;11.77;;;9.03;;
15287;SDS011;7745;48.708;9.026;2023-09-12T00:14:52;13.83;;;9.57;;
15287;SDS011;7745;48.708;9.026;2023-09-12T00:17:19;12.33;;;9.40;;
15287;SDS011;7745;48.708;9.026;2023-09-12T00:19:46;10.20;;;9.13;;
15287;SDS011;7745;48.708;9.026;2023-09-12T00:22:12;15.03;;;9.57;;
15287;SDS011;7745;48.708;9.026;2023-09-12T00:24:39;15.93;;;9.30;;
15287;SDS011;7745;48.708;9.026;2023-09-12T00:27:06;12.00;;;9.57;;
15287;SDS011;7745;48.708;9.026;2023-09-12T00:29:33;10.37;;;9.27;;
15287;SDS011;7745;48.708;9.026;2023-09-12T00:32:01;11.17;;;9.40;;
15287;SDS011;7745;48.708;9.026;2023-09-12T00:34:28;15.00;;;9.67;;
15287;SDS011;7745;48.708;9.026;2023-09-12T00:36:56;15.37;;;9.87;;
15287;SDS011;7745;48.708;9.026;2023-09-12T00:39:23;14.10;;;9.80;;
15287;SDS011;7745;48.708;9.026;2023-09-12T00:41:49;13.40;;;9.23;;
15287;SDS011;7745;48.708;9.026;2023-09-12T00:44:16;12.97;;;9.53;;
15287;SDS011;7745;48.708;9.026;2023-09-12T00:46:43;11.93;;;9.33;;
15287;SDS011;7745;48.708;9.026;2023-09-12T00:49:13;10.13;;;8.90;;
15287;SDS011;7745;48.708;9.026;2023-09-12T00:51:41;14.70;;;9.83;;
15287;SDS011;7745;48.708;9.026;2023-09-12T00:54:10;14.33;;;9.10;;
15287;SDS011;7745;48.708;9.026;2023-09-12T00:56:37;12.80;;;8.93;;
15287;SDS011;7745;48.708;9.026;2023-09-12T00:59:04;13.80;;;9.70;;
15287;SDS011;7745;48.708;9.026;2023-09-12T01:01:32;13.97;;;9.50;;
15287;SDS011;7745;48.708;9.026;2023-09-12T01:03:59;10.13;;;9.03;;
15287;SDS011;7745;48.708;9.026;2023-09-12T01:06:29;11.33;;;9.87;;
15287;SDS011;7745;48.708;9.026;2023-09-12T01:08:58;13.70;;;9.53;;
15287;SDS011;7745;48.708;9.026;2023-09-12T01:11:24;14.20;;;8.70;;
15287;SDS011;7745;48.708;9.026;2023-09-12T01:13:52;13.60;;;10.07;;
15287;SDS011;7745;48.708;9.026;2023-09-12T01:16:19;13.07;;;9.57;;
15287;SDS011;7745;48.708;9.026;2023-09-12T01:18:46;16.53;;;9.80;;
15287;SDS011;7745;48.708;9.026;2023-09-12T01:21:37;14.10;;;9.30;;
15287;SDS011;7745;48.708;9.026;2023-09-12T01:24:29;13.17;;;9.80;;
15287;SDS011;7745;48.708;9.026;2023-09-12T01:27:21;14.00;;;9.33;;
15287;SDS011;7745;48.708;9.026;2023-09-12T01:29:53;12.07;;;9.27;;
15287;SDS011;7745;48.708;9.026;2023-09-12T01:32:22;14.30;;;9.70;;
15287;SDS011;7745;48.708;9.026;2023-09-12T01:34:49;12.27;;;9.37;;
15287;SDS011;7745;48.708;9.026;2023-09-12T01:37:17;11.50;;;9.73;;
15287;SDS011;7745;48.708;9.026;2023-09-12T01:39:44;11.60;;;9.30;;
15287;SDS011;7745;48.708;9.026;2023-09-12T01:42:11;14.37;;;9.60;;
15287;SDS011;7745;48.708;9.026;2023-09-12T01:44:43;19.53;;;10.57;;
15287;SDS011;7745;48.708;9.026;2023-09-12T01:47:11;13.33;;;10.30;;
15287;SDS011;7745;48.708;9.026;2023-09-12T01:49:39;13.40;;;9.97;;
15287;SDS011;7745;48.708;9.026;2023-09-12T01:52:09;10.80;;;9.60;;
15287;SDS011;7745;48.708;9.026;2023-09-12T01:54:36;15.27;;;10.13;;
15287;SDS011;7745;48.708;9.026;2023-09-12T01:57:03;13.83;;;9.67;;
15287;SDS011;7745;48.708;9.026;2023-09-12T01:59:31;11.37;;;9.30;;
15287;SDS011;7745;48.708;9.026;2023-09-12T02:01:59;9.77;;;8.77;;
15287;SDS011;7745;48.708;9.026;2023-09-12T02:04:26;12.27;;;9.57;;
15287;SDS011;7745;48.708;9.026;2023-09-12T02:06:53;13.33;;;9.40;;
15287;SDS011;7745;48.708;9.026;2023-09-12T02:09:19;11.93;;;9.40;;
15287;SDS011;7745;48.708;9.026;2023-09-12T02:11:47;14.07;;;9.93;;
15287;SDS011;7745;48.708;9.026;2023-09-12T02:14:15;12.53;;;9.50;;
15287;SDS011;7745;48.708;9.026;2023-09-12T02:16:42;11.40;;;9.20;;
15287;SDS011;7745;48.708;9.026;2023-09-12T02:19:11;12.47;;;9.60;;
15287;SDS011;7745;48.708;9.026;2023-09-12T02:21:38;12.17;;;9.00;;
15287;SDS011;7745;48.708;9.026;2023-09-12T02:24:05;11.13;;;9.20;;
15287;SDS011;7745;48.708;9.026;2023-09-12T02:26:32;11.77;;;8.97;;
15287;SDS011;7745;48.708;9.026;2023-09-12T02:29:01;12.27;;;9.77;;
15287;SDS011;7745;48.708;9.026;2023-09-12T02:31:28;13.17;;;10.40;;
15287;SDS011;7745;48.708;9.026;2023-09-12T02:33:55;14.47;;;9.27;;
15287;SDS011;7745;48.708;9.026;2023-09-12T02:36:23;16.27;;;9.10;;
15287;SDS011;7745;48.708;9.026;2023-09-12T02:38:50;12.43;;;9.07;;
15287;SDS011;7745;48.708;9.026;2023-09-12T02:41:17;12.90;;;9.60;;
15287;SDS011;7745;48.708;9.026;2023-09-12T02:43:44;12.60;;;9.43;;
15287;SDS011;7745;48.708;9.026;2023-09-12T02:46:11;11.03;;;9.27;;
15287;SDS011;7745;48.708;9.026;2023-09-12T02:48:37;14.43;;;9.57;;
15287;SDS011;7745;48.708;9.026;2023-09-12T02:51:04;11.10;;;9.50;;
15287;SDS011;7745;48.708;9.026;2023-09-12T02:53:32;11.80;;;9.73;;
15287;SDS011;7745;48.708;9.026;2023-09-12T02:55:59;11.23;;;10.03;;
15287;SDS011;7745;48.708;9.026;2023-09-12T02:58:26;13.93;;;9.47;;
15287;SDS011;7745;48.708;9.026;2023-09-12T03:00:52;14.37;;;10.00;;
15287;SDS011;7745;48.708;9.026;2023-09-12T03:03:19;12.33;;;9.60;;
15287;SDS011;7745;48.708;9.026;2023-09-12T03:05:46;14.20;;;9.63;;
15287;SDS011;7745;48.708;9.026;2023-09-12T03:08:13;13.47;;;10.37;;
15287;SDS011;7745;48.708;9.026;2023-09-12T03:10:41;10.60;;;9.53;;
15287;SDS011;7745;48.708;9.026;2023-09-12T03:13:08;11.17;;;10.00;;
15287;SDS011;7745;48.708;9.026;2023-09-12T03:15:37;14.10;;;9.90;;
15287;SDS011;7745;48.708;9.026;2023-09-12T03:18:04;15.97;;;10.00;;
15287;SDS011;7745;48.708;9.026;2023-09-12T03:20:37;15.83;;;9.77;;
15287;SDS011;7745;48.708;9.026;2023-09-12T03:23:04;14.30;;;9.80;;
15287;SDS011;7745;48.708;9.026;2023-09-12T03:25:34;12.70;;;9.87;;
15287;SDS011;7745;48.708;9.026;2023-09-12T03:28:03;12.50;;;9.57;;
15287;SDS011;7745;48.708;9.026;2023-09-12T03:30:31;11.70;;;9.57;;
15287;SDS011;7745;48.708;9.026;2023-09-12T03:32:58;13.70;;;9.80;;
15287;SDS011;7745;48.708;9.026;2023-09-12T03:35:25;12.37;;;10.20;;
15287;SDS011;7745;48.708;9.026;2023-09-12T03:37:52;12.43;;;10.10;;
15287;SDS011;7745;48.708;9.026;2023-09-12T03:40:19;12.87;;;9.80;;
15287;SDS011;7745;48.708;9.026;2023-09-12T03:42:46;11.10;;;9.83;;
15287;SDS011;7745;48.708;9.026;2023-09-12T03:45:14;12.10;;;10.17;;
15287;SDS011;7745;48.708;9.026;2023-09-12T03:47:41;13.47;;;10.10;;
15287;SDS011;7745;48.708;9.026;2023-09-12T03:50:11;12.37;;;9.57;;
15287;SDS011;7745;48.708;9.026;2023-09-12T03:52:38;14.93;;;9.50;;
15287;SDS011;7745;48.708;9.026;2023-09-12T03:55:05;14.87;;;10.43;;
15287;SDS011;7745;48.708;9.026;2023-09-12T03:57:33;12.67;;;10.47;;
15287;SDS011;7745;48.708;9.026;2023-09-12T04:00:00;11.57;;;10.37;;
15287;SDS011;7745;48.708;9.026;2023-09-12T04:02:30;10.63;;;9.50;;
15287;SDS011;7745;48.708;9.026;2023-09-12T04:04:57;10.77;;;9.53;;
15287;SDS011;7745;48.708;9.026;2023-09-12T04:07:24;13.60;;;9.90;;
15287;SDS011;7745;48.708;9.026;2023-09-12T04:09:51;11.17;;;9.97;;
15287;SDS011;7745;48.708;9.026;2023-09-12T04:12:18;14.60;;;9.97;;
15287;SDS011;7745;48.708;9.026;2023-09-12T04:14:45;15.13;;;9.87;;
15287;SDS011;7745;48.708;9.026;2023-09-12T04:17:11;15.43;;;10.37;;
15287;SDS011;7745;48.708;9.026;2023-09-12T04:19:39;14.03;;;10.13;;
15287;SDS011;7745;48.708;9.026;2023-09-12T04:22:06;12.13;;;9.80;;
15287;SDS011;7745;48.708;9.026;2023-09-12T04:24:33;12.33;;;10.87;;
15287;SDS011;7745;48.708;9.026;2023-09-12T04:27:00;13.73;;;10.23;;
15287;SDS011;7745;48.708;9.026;2023-09-12T04:29:27;14.77;;;9.97;;
15287;SDS011;7745;48.708;9.026;2023-09-12T04:31:54;14.27;;;11.07;;
15287;SDS011;7745;48.708;9.026;2023-09-12T04:34:24;14.80;;;10.33;;
15287;SDS011;7745;48.708;9.026;2023-09-12T04:36:53;12.37;;;10.03;;
15287;SDS011;7745;48.708;9.026;2023-09-12T04:39:20;13.30;;;10.70;;
15287;SDS011;7745;48.708;9.026;2023-09-12T04:41:47;12.63;;;10.10;;
15287;SDS011;7745;48.708;9.026;2023-09-12T04:44:14;14.57;;;11.13;;
15287;SDS011;7745;48.708;9.026;2023-09-12T04:46:41;16.77;;;9.80;;
15287;SDS011;7745;48.708;9.026;2023-09-12T04:49:07;15.13;;;9.87;;
15287;SDS011;7745;48.708;9.026;2023-09-12T04:51:34;15.17;;;10.10;;
15287;SDS011;7745;48.708;9.026;2023-09-12T04:54:02;12.53;;;10.63;;
15287;SDS011;7745;48.708;9.026;2023-09-12T04:56:29;13.77;;;10.97;;
15287;SDS011;7745;48.708;9.026;2023-09-12T04:58:56;13.87;;;11.47;;
15287;SDS011;7745;48.708;9.026;2023-09-12T05:01:23;12.87;;;10.80;;
15287;SDS011;7745;48.708;9.026;2023-09-12T05:03:51;13.33;;;10.77;;
15287;SDS011;7745;48.708;9.026;2023-09-12T05:06:18;13.73;;;11.00;;
15287;SDS011;7745;48.708;9.026;2023-09-12T05:08:44;18.23;;;11.10;;
15287;SDS011;7745;48.708;9.026;2023-09-12T05:11:12;12.07;;;10.80;;
15287;SDS011;7745;48.708;9.026;2023-09-12T05:13:40;16.83;;;11.43;;
15287;SDS011;7745;48.708;9.026;2023-09-12T05:16:07;12.00;;;10.37;;
15287;SDS011;7745;48.708;9.026;2023-09-12T05:18:34;15.63;;;11.30;;
15287;SDS011;7745;48.708;9.026;2023-09-12T05:21:01;14.40;;;11.07;;
15287;SDS011;7745;48.708;9.026;2023-09-12T05:23:27;12.37;;;10.63;;
15287;SDS011;7745;48.708;9.026;2023-09-12T05:25:54;16.23;;;10.23;;
15287;SDS011;7745;48.708;9.026;2023-09-12T05:28:23;16.27;;;11.23;;
15287;SDS011;7745;48.708;9.026;2023-09-12T05:30:49;11.87;;;10.63;;
15287;SDS011;7745;48.708;9.026;2023-09-12T05:33:16;17.20;;;11.60;;
15287;SDS011;7745;48.708;9.026;2023-09-12T05:35:43;15.43;;;11.40;;
15287;SDS011;7745;48.708;9.026;2023-09-12T05:38:10;17.03;;;10.73;;
15287;SDS011;7745;48.708;9.026;2023-09-12T05:40:37;17.10;;;10.83;;
15287;SDS011;7745;48.708;9.026;2023-09-12T05:43:04;15.30;;;11.13;;
15287;SDS011;7745;48.708;9.026;2023-09-12T05:45:32;12.37;;;10.90;;
15287;SDS011;7745;48.708;9.026;2023-09-12T05:47:59;16.60;;;10.60;;
15287;SDS011;7745;48.708;9.026;2023-09-12T05:50:28;18.17;;;11.03;;
15287;SDS011;7745;48.708;9.026;2023-09-12T05:52:55;12.93;;;9.97;;
15287;SDS011;7745;48.708;9.026;2023-09-12T05:55:23;16.33;;;10.30;;
15287;SDS011;7745;48.708;9.026;2023-09-12T05:57:54;14.63;;;11.00;;
15287;SDS011;7745;48.708;9.026;2023-09-12T06:00:21;14.13;;;10.40;;
15287;SDS011;7745;48.708;9.026;2023-09-12T06:02:49;14.13;;;10.03;;
15287;SDS011;7745;48.708;9.026;2023-09-12T06:05:16;11.83;;;10.17;;
15287;SDS011;7745;48.708;9.026;2023-09-12T06:07:43;12.80;;;10.40;;
15287;SDS011;7745;48.708;9.026;2023-09-12T06:10:11;17.40;;;10.57;;
15287;SDS011;7745;48.708;9.026;2023-09-12T06:12:38;14.90;;;10.57;;
15287;SDS011;7745;48.708;9.026;2023-09-12T06:15:05;15.03;;;10.60;;
15287;SDS011;7745;48.708;9.026;2023-09-12T06:17:32;19.43;;;11.17;;
15287;SDS011;7745;48.708;9.026;2023-09-12T06:20:02;12.97;;;10.63;;
15287;SDS011;7745;48.708;9.026;2023-09-12T06:22:31;18.00;;;10.43;;
15287;SDS011;7745;48.708;9.026;2023-09-12T06:24:58;20.63;;;10.73;;
15287;SDS011;7745;48.708;9.026;2023-09-12T06:27:25;17.93;;;10.90;;
15287;SDS011;7745;48.708;9.026;2023-09-12T06:29:52;15.70;;;11.10;;
15287;SDS011;7745;48.708;9.026;2023-09-12T06:32:19;17.93;;;10.97;;
15287;SDS011;7745;48.708;9.026;2023-09-12T06:34:46;17.67;;;11.83;;
15287;SDS011;7745;48.708;9.026;2023-09-12T06:37:14;16.83;;;11.20;;
15287;SDS011;7745;48.708;9.026;2023-09-12T06:39:41;18.73;;;11.83;;
15287;SDS011;7745;48.708;9.026;2023-09-12T06:42:08;19.10;;;11.50;;
15287;SDS011;7745;48.708;9.026;2023-09-12T06:44:35;14.70;;;10.67;;
15287;SDS011;7745;48.708;9.026;2023-09-12T06:47:03;14.17;;;11.87;;
15287;SDS011;7745;48.708;9.026;2023-09-12T06:49:30;14.00;;;11.60;;
15287;SDS011;7745;48.708;9.026;2023-09-12T06:51:57;17.13;;;11.37;;
15287;SDS011;7745;48.708;9.026;2023-09-12T06:54:25;15.23;;;11.20;;
15287;SDS011;7745;48.708;9.026;2023-09-12T06:56:52;14.90;;;10.80;;
15287;SDS011;7745;48.708;9.026;2023-09-12T06:59:19;14.43;;;11.23;;
15287;SDS011;7745;48.708;9.026;2023-09-12T07:01:45;18.73;;;11.23;;
15287;SDS011;7745;48.708;9.026;2023-09-12T07:04:12;12.87;;;10.53;;
15287;SDS011;7745;48.708;9.026;2023-09-12T07:06:39;12.15;;;10.00;;
15287;SDS011;7745;48.708;9.026;2023-09-12T07:09:07;15.03;;;10.10;;
15287;SDS011;7745;48.708;9.026;2023-09-12T07:11:38;11.43;;;10.32;;
15287;SDS011;7745;48.708;9.026;2023-09-12T07:14:05;14.80;;;10.23;;
15287;SDS011;7745;48.708;9.026;2023-09-12T07:16:32;13.77;;;10.13;;
15287;SDS011;7745;48.708;9.026;2023-09-12T07:18:59;12.35;;;9.60;;
15287;SDS011;7745;48.708;9.026;2023-09-12T07:21:25;12.32;;;10.40;;
15287;SDS011;7745;48.708;9.026;2023-09-12T07:23:53;15.43;;;10.15;;
15287;SDS011;7745;48.708;9.026;2023-09-12T07:26:20;13.77;;;10.02;;
15287;SDS011;7745;48.708;9.026;2023-09-12T07:28:48;11.73;;;9.10;;
15287;SDS011;7745;48.708;9.026;2023-09-12T07:31:16;13.88;;;9.82;;
15287;SDS011;7745;48.708;9.026;2023-09-12T07:33:43;14.20;;;10.05;;
15287;SDS011;7745;48.708;9.026;2023-09-12T07:36:09;11.27;;;9.73;;
15287;SDS011;7745;48.708;9.026;2023-09-12T07:38:37;12.15;;;9.88;;
15287;SDS011;7745;48.708;9.026;2023-09-12T07:41:04;11.32;;;10.02;;
15287;SDS011;7745;48.708;9.026;2023-09-12T07:43:30;12.40;;;10.20;;
15287;SDS011;7745;48.708;9.026;2023-09-12T07:45:58;10.57;;;9.48;;
15287;SDS011;7745;48.708;9.026;2023-09-12T07:48:25;9.85;;;8.85;;
15287;SDS011;7745;48.708;9.026;2023-09-12T07:50:53;16.52;;;9.57;;
15287;SDS011;7745;48.708;9.026;2023-09-12T07:53:20;11.05;;;9.95;;
15287;SDS011;7745;48.708;9.026;2023-09-12T07:55:47;11.68;;;10.13;;
15287;SDS011;7745;48.708;9.026;2023-09-12T07:58:14;11.60;;;9.25;;
15287;SDS011;7745;48.708;9.026;2023-09-12T08:00:43;13.70;;;9.43;;
15287;SDS011;7745;48.708;9.026;2023-09-12T08:03:11;11.80;;;9.70;;
15287;SDS011;7745;48.708;9.026;2023-09-12T08:05:38;12.05;;;9.48;;
15287;SDS011;7745;48.708;9.026;2023-09-12T08:08:05;14.77;;;9.32;;
15287;SDS011;7745;48.708;9.026;2023-09-12T08:10:32;12.55;;;10.07;;
15287;SDS011;7745;48.708;9.026;2023-09-12T08:12:58;12.13;;;10.32;;
15287;SDS011;7745;48.708;9.026;2023-09-12T08:15:25;11.13;;;9.05;;
15287;SDS011;7745;48.708;9.026;2023-09-12T08:17:53;12.55;;;9.38;;
15287;SDS011;7745;48.708;9.026;2023-09-12T08:20:21;23.08;;;10.68;;
15287;SDS011;7745;48.708;9.026;2023-09-12T08:22:48;14.63;;;9.65;;
15287;SDS011;7745;48.708;9.026;2023-09-12T08:25:15;15.05;;;9.93;;
15287;SDS011;7745;48.708;9.026;2023-09-12T08:27:43;11.65;;;9.27;;
15287;SDS011;7745;48.708;9.026;2023-09-12T08:30:10;13.02;;;9.57;;
15287;SDS011;7745;48.708;9.026;2023-09-12T08:32:37;12.02;;;9.75;;
15287;SDS011;7745;48.708;9.026;2023-09-12T08:35:08;20.13;;;9.30;;
15287;SDS011;7745;48.708;9.026;2023-09-12T08:37:38;13.57;;;9.18;;
15287;SDS011;7745;48.708;9.026;2023-09-12T08:40:06;18.05;;;9.50;;
15287;SDS011;7745;48.708;9.026;2023-09-12T08:42:36;14.70;;;9.35;;
15287;SDS011;7745;48.708;9.026;2023-09-12T08:45:07;15.85;;;9.77;;
15287;SDS011;7745;48.708;9.026;2023-09-12T08:47:38;12.15;;;8.98;;
15287;SDS011;7745;48.708;9.026;2023-09-12T08:50:07;11.02;;;9.00;;
15287;SDS011;7745;48.708;9.026;2023-09-12T08:52:36;10.32;;;9.05;;
15287;SDS011;7745;48.708;9.026;2023-09-12T08:55:05;12.65;;;8.70;;
15287;SDS011;7745;48.708;9.026;2023-09-12T08:57:32;10.95;;;8.32;;
15287;SDS011;7745;48.708;9.026;2023-09-12T09:00:01;9.57;;;8.57;;
15287;SDS011;7745;48.708;9.026;2023-09-12T09:02:31;10.55;;;8.30;;
15287;SDS011;7745;48.708;9.026;2023-09-12T09:04:58;9.65;;;8.40;;
15287;SDS011;7745;48.708;9.026;2023-09-12T09:07:26;10.63;;;7.85;;
15287;SDS011;7745;48.708;9.026;2023-09-12T09:09:54;9.82;;;8.20;;
15287;SDS011;7745;48.708;9.026;2023-09-12T09:12:23;15.50;;;8.80;;
15287;SDS011;7745;48.708;9.026;2023-09-12T09:14:50;12.23;;;8.27;;
15287;SDS011;7745;48.708;9.026;2023-09-12T09:17:17;10.80;;;8.23;;
15287;SDS011;7745;48.708;9.026;2023-09-12T09:19:45;11.65;;;8.15;;
15287;SDS011;7745;48.708;9.026;2023-09-12T09:22:12;10.75;;;7.95;;
15287;SDS011;7745;48.708;9.026;2023-09-12T09:24:39;10.02;;;8.05;;
15287;SDS011;7745;48.708;9.026;2023-09-12T09:27:06;10.70;;;8.50;;
15287;SDS011;7745;48.708;9.026;2023-09-12T09:29:45;11.73;;;8.10;;
15287;SDS011;7745;48.708;9.026;2023-09-12T09:32:16;8.35;;;7.32;;
15287;SDS011;7745;48.708;9.026;2023-09-12T09:34:44;9.95;;;7.22;;
15287;SDS011;7745;48.708;9.026;2023-09-12T09:37:11;8.43;;;7.43;;
15287;SDS011;7745;48.708;9.026;2023-09-12T09:39:40;9.25;;;7.47;;
15287;SDS011;7745;48.708;9.026;2023-09-12T09:42:09;10.98;;;6.85;;
15287;SDS011;7745;48.708;9.026;2023-09-12T09:44:37;13.32;;;7.47;;
15287;SDS011;7745;48.708;9.026;2023-09-12T09:47:05;8.93;;;6.97;;
15287;SDS011;7745;48.708;9.026;2023-09-12T09:49:32;8.25;;;6.20;;
15287;SDS011;7745;48.708;9.026;2023-09-12T09:51:59;7.55;;;6.25;;
15287;SDS011;7745;48.708;9.026;2023-09-12T09:54:29;8.40;;;6.53;;
15287;SDS011;7745;48.708;9.026;2023-09-12T09:56:56;8.68;;;6.45;;
15287;SDS011;7745;48.708;9.026;2023-09-12T09:59:24;8.73;;;6.57;;
15287;SDS011;7745;48.708;9.026;2023-09-12T10:01:53;9.38;;;6.75;;
15287;SDS011;7745;48.708;9.026;2023-09-12T10:04:23;10.18;;;6.97;;
15287;SDS011;7745;48.708;9.026;2023-09-12T10:06:53;9.45;;;6.43;;
15287;SDS011;7745;48.708;9.026;2023-09-12T10:09:22;10.45;;;6.65;;
15287;SDS011;7745;48.708;9.026;2023-09-12T10:11:51;11.27;;;6.10;;
15287;SDS011;7745;48.708;9.026;2023-09-12T10:14:20;10.70;;;6.28;;
15287;SDS011;7745;48.708;9.026;2023-09-12T10:16:50;12.32;;;6.70;;
15287;SDS011;7745;48.708;9.026;2023-09-12T10:19:19;7.82;;;6.45;;
15287;SDS011;7745;48.708;9.026;2023-09-12T10:21:52;8.30;;;6.30;;
15287;SDS011;7745;48.708;9.026;2023-09-12T10:24:27;9.38;;;6.50;;
15287;SDS011;7745;48.708;9.026;2023-09-12T10:26:54;9.52;;;6.82;;
15287;SDS011;7745;48.708;9.026;2023-09-12T10:29:22;10.07;;;6.75;;
15287;SDS011;7745;48.708;9.026;2023-09-12T10:31:48;7.30;;;6.47;;
15287;SDS011;7745;48.708;9.026;2023-09-12T10:34:16;7.25;;;6.25;;
15287;SDS011;7745;48.708;9.026;2023-09-12T10:36:43;7.90;;;7.10;;
15287;SDS011;7745;48.708;9.026;2023-09-12T10:39:12;14.10;;;7.13;;
15287;SDS011;7745;48.708;9.026;2023-09-12T10:41:41;11.02;;;7.05;;
15287;SDS011;7745;48.708;9.026;2023-09-12T10:44:09;10.32;;;6.88;;
15287;SDS011;7745;48.708;9.026;2023-09-12T10:46:37;10.60;;;6.72;;
15287;SDS011;7745;48.708;9.026;2023-09-12T10:49:05;6.90;;;6.30;;
15287;SDS011;7745;48.708;9.026;2023-09-12T10:51:33;7.65;;;6.60;;
15287;SDS011;7745;48.708;9.026;2023-09-12T10:54:03;8.00;;;6.45;;
15287;SDS011;7745;48.708;9.026;2023-09-12T10:56:31;11.95;;;6.65;;
15287;SDS011;7745;48.708;9.026;2023-09-12T10:59:09;7.32;;;6.63;;
15287;SDS011;7745;48.708;9.026;2023-09-12T11:01:37;7.97;;;6.00;;
15287;SDS011;7745;48.708;9.026;2023-09-12T11:06:58;9.38;;;6.60;;
15287;SDS011;7745;48.708;9.026;2023-09-12T11:09:25;9.23;;;7.00;;
15287;SDS011;7745;48.708;9.026;2023-09-12T11:11:55;9.77;;;6.10;;
15287;SDS011;7745;48.708;9.026;2023-09-12T11:14:24;9.80;;;6.10;;
15287;SDS011;7745;48.708;9.026;2023-09-12T11:19:47;7.80;;;6.07;;
15287;SDS011;7745;48.708;9.026;2023-09-12T11:22:20;9.48;;;5.93;;
15287;SDS011;7745;48.708;9.026;2023-09-12T11:24:52;7.95;;;5.30;;
15287;SDS011;7745;48.708;9.026;2023-09-12T11:27:22;5.70;;;5.13;;
15287;SDS011;7745;48.708;9.026;2023-09-12T11:29:50;7.68;;;5.25;;
15287;SDS011;7745;48.708;9.026;2023-09-12T11:32:26;8.20;;;5.28;;
15287;SDS011;7745;48.708;9.026;2023-09-12T11:35:04;9.90;;;6.00;;
15287;SDS011;7745;48.708;9.026;2023-09-12T11:37:31;9.35;;;5.90;;
15287;SDS011;7745;48.708;9.026;2023-09-12T11:40:02;6.50;;;5.78;;
15287;SDS011;7745;48.708;9.026;2023-09-12T11:42:42;7.38;;;5.25;;
15287;SDS011;7745;48.708;9.026;2023-09-12T11:45:11;8.13;;;5.43;;
15287;SDS011;7745;48.708;9.026;2023-09-12T11:47:39;6.80;;;5.05;;
15287;SDS011;7745;48.708;9.026;2023-09-12T11:50:07;7.70;;;5.15;;
15287;SDS011;7745;48.708;9.026;2023-09-12T11:52:35;7.20;;;5.68;;
15287;SDS011;7745;48.708;9.026;2023-09-12T11:55:03;6.25;;;5.65;;
15287;SDS011;7745;48.708;9.026;2023-09-12T11:57:31;6.72;;;6.03;;
15287;SDS011;7745;48.708;9.026;2023-09-12T12:00:02;9.10;;;5.50;;
15287;SDS011;7745;48.708;9.026;2023-09-12T12:02:33;6.93;;;5.75;;
15287;SDS011;7745;48.708;9.026;2023-09-12T12:05:00;9.88;;;5.45;;
15287;SDS011;7745;48.708;9.026;2023-09-12T12:07:29;7.60;;;6.00;;
15287;SDS011;7745;48.708;9.026;2023-09-12T12:09:56;9.48;;;5.93;;
15287;SDS011;7745;48.708;9.026;2023-09-12T12:12:23;7.20;;;5.88;;
15287;SDS011;7745;48.708;9.026;2023-09-12T12:14:50;7.20;;;5.18;;
15287;SDS011;7745;48.708;9.026;2023-09-12T12:17:18;9.07;;;5.47;;
15287;SDS011;7745;48.708;9.026;2023-09-12T12:19:45;5.90;;;4.95;;
15287;SDS011;7745;48.708;9.026;2023-09-12T12:22:12;8.23;;;5.22;;
15287;SDS011;7745;48.708;9.026;2023-09-12T12:24:41;9.65;;;5.07;;
15287;SDS011;7745;48.708;9.026;2023-09-12T12:27:10;9.48;;;5.05;;
15287;SDS011;7745;48.708;9.026;2023-09-12T12:29:37;7.53;;;5.22;;
15287;SDS011;7745;48.708;9.026;2023-09-12T12:32:05;7.05;;;5.57;;
15287;SDS011;7745;48.708;9.026;2023-09-12T12:34:36;5.80;;;4.65;;
15287;SDS011;7745;48.708;9.026;2023-09-12T12:37:03;6.63;;;5.57;;
15287;SDS011;7745;48.708;9.026;2023-09-12T12:39:31;5.65;;;4.60;;
15287;SDS011;7745;48.708;9.026;2023-09-12T12:41:58;6.47;;;5.07;;
15287;SDS011;7745;48.708;9.026;2023-09-12T12:44:32;6.82;;;4.90;;
15287;SDS011;7745;48.708;9.026;2023-09-12T12:47:06;5.95;;;5.35;;
15287;SDS011;7745;48.708;9.026;2023-09-12T12:49:38;9.38;;;5.45;;
15287;SDS011;7745;48.708;9.026;2023-09-12T12:52:05;6.63;;;5.93;;
15287;SDS011;7745;48.708;9.026;2023-09-12T12:54:35;9.32;;;6.10;;
15287;SDS011;7745;48.708;9.026;2023-09-12T12:57:02;6.25;;;5.65;;
15287;SDS011;7745;48.708;9.026;2023-09-12T12:59:30;8.68;;;5.93;;
15287;SDS011;7745;48.708;9.026;2023-09-12T13:02:01;7.30;;;6.10;;
15287;SDS011;7745;48.708;9.026;2023-09-12T13:04:28;6.15;;;5.50;;
15287;SDS011;7745;48.708;9.026;2023-09-12T13:07:04;7.85;;;6.25;;
15287;SDS011;7745;48.708;9.026;2023-09-12T13:09:31;10.25;;;7.65;;
15287;SDS011;7745;48.708;9.026;2023-09-12T13:11:58;9.32;;;6.88;;
15287;SDS011;7745;48.708;9.026;2023-09-12T13:14:25;11.48;;;6.93;;
15287;SDS011;7745;48.708;9.026;2023-09-12T13:16:56;16.15;;;7.95;;
15287;SDS011;7745;48.708;9.026;2023-09-12T13:19:23;13.70;;;7.43;;
15287;SDS011;7745;48.708;9.026;2023-09-12T13:21:49;14.32;;;7.22;;
15287;SDS011;7745;48.708;9.026;2023-09-12T13:24:17;11.57;;;7.40;;
15287;SDS011;7745;48.708;9.026;2023-09-12T13:26:44;16.38;;;7.57;;
15287;SDS011;7745;48.708;9.026;2023-09-12T13:29:11;12.35;;;7.88;;
15287;SDS011;7745;48.708;9.026;2023-09-12T13:31:38;11.82;;;7.78;;
15287;SDS011;7745;48.708;9.026;2023-09-12T13:34:05;14.52;;;8.05;;
15287;SDS011;7745;48.708;9.026;2023-09-12T13:36:31;11.57;;;7.35;;
15287;SDS011;7745;48.708;9.026;2023-09-12T13:38:58;12.02;;;7.55;;
15287;SDS011;7745;48.708;9.026;2023-09-12T13:41:27;12.13;;;7.50;;
15287;SDS011;7745;48.708;9.026;2023-09-12T13:43:53;12.57;;;7.47;;
15287;SDS011;7745;48.708;9.026;2023-09-12T13:46:20;12.68;;;7.30;;
15287;SDS011;7745;48.708;9.026;2023-09-12T13:48:47;17.85;;;8.70;;
15287;SDS011;7745;48.708;9.026;2023-09-12T13:51:13;8.95;;;7.22;;
15287;SDS011;7745;48.708;9.026;2023-09-12T13:53:40;10.55;;;7.65;;
15287;SDS011;7745;48.708;9.026;2023-09-12T13:56:07;8.38;;;7.35;;
15287;SDS011;7745;48.708;9.026;2023-09-12T13:58:35;15.10;;;7.78;;
15287;SDS011;7745;48.708;9.026;2023-09-12T14:01:02;12.27;;;7.25;;
15287;SDS011;7745;48.708;9.026;2023-09-12T14:03:28;12.55;;;7.38;;
15287;SDS011;7745;48.708;9.026;2023-09-12T14:05:55;11.18;;;7.38;;
15287;SDS011;7745;48.708;9.026;2023-09-12T14:08:22;9.98;;;6.80;;
15287;SDS011;7745;48.708;9.026;2023-09-12T14:10:50;10.30;;;6.82;;
15287;SDS011;7745;48.708;9.026;2023-09-12T14:13:17;10.52;;;7.03;;
15287;SDS011;7745;48.708;9.026;2023-09-12T14:15:45;12.05;;;7.20;;
15287;SDS011;7745;48.708;9.026;2023-09-12T14:18:12;10.38;;;7.38;;
15287;SDS011;7745;48.708;9.026;2023-09-12T14:20:39;13.10;;;7.00;;
15287;SDS011;7745;48.708;9.026;2023-09-12T14:23:06;10.85;;;7.07;;
15287;SDS011;7745;48.708;9.026;2023-09-12T14:25:32;17.25;;;7.50;;
15287;SDS011;7745;48.708;9.026;2023-09-12T14:27:59;13.02;;;7.22;;
15287;SDS011;7745;48.708;9.026;2023-09-12T14:30:26;9.35;;;7.07;;
15287;SDS011;7745;48.708;9.026;2023-09-12T14:33:01;11.50;;;6.90;;
15287;SDS011;7745;48.708;9.026;2023-09-12T14:35:28;11.60;;;6.85;;
15287;SDS011;7745;48.708;9.026;2023-09-12T14:37:55;10.88;;;7.00;;
15287;SDS011;7745;48.708;9.026;2023-09-12T14:40:23;11.57;;;7.35;;
15287;SDS011;7745;48.708;9.026;2023-09-12T14:42:51;9.93;;;7.10;;
15287;SDS011;7745;48.708;9.026;2023-09-12T14:45:18;10.73;;;7.00;;
15287;SDS011;7745;48.708;9.026;2023-09-12T14:47:45;8.55;;;7.63;;
15287;SDS011;7745;48.708;9.026;2023-09-12T14:50:13;12.95;;;7.13;;
15287;SDS011;7745;48.708;9.026;2023-09-12T14:52:40;12.23;;;7.57;;
15287;SDS011;7745;48.708;9.026;2023-09-12T14:55:07;14.85;;;7.57;;
15287;SDS011;7745;48.708;9.026;2023-09-12T14:57:34;12.93;;;7.47;;